createdAt,value
2023-03-05T00:00:33.141Z,0.00
2023-03-05T00:01:34.080Z,0.00
2023-03-05T00:02:34.070Z,0.00
2023-03-05T00:03:33.655Z,0.00
2023-03-05T00:04:33.765Z,0.00
2023-03-05T00:05:34.001Z,0.00
2023-03-05T00:06:34.221Z,0.00
2023-03-05T00:07:35.536Z,0.00
2023-03-05T00:08:35.532Z,0.00
2023-03-05T00:09:35.905Z,0.00
2023-03-05T00:10:35.910Z,0.00
2023-03-05T00:11:35.573Z,0.00
2023-03-05T00:12:36.072Z,0.00
2023-03-05T00:13:35.475Z,0.00
2023-03-05T00:14:35.697Z,0.00
2023-03-05T00:15:36.545Z,0.00
2023-03-05T00:16:36.088Z,0.00
2023-03-05T00:17:38.036Z,0.00
2023-03-05T00:18:36.401Z,0.00
2023-03-05T00:19:36.595Z,0.00
2023-03-05T00:20:37.577Z,0.00
2023-03-05T00:21:36.956Z,0.00
2023-03-05T00:22:37.125Z,0.00
2023-03-05T00:23:37.278Z,0.00
2023-03-05T00:24:37.467Z,0.00
2023-03-05T00:25:38.534Z,0.00
2023-03-05T00:26:37.805Z,0.00
2023-03-05T00:27:37.983Z,0.00
2023-03-05T00:28:38.172Z,0.00
2023-03-05T00:29:38.354Z,0.00
2023-03-05T00:30:38.550Z,0.00
2023-03-05T00:31:38.814Z,0.00
2023-03-05T00:32:38.915Z,0.00
2023-03-05T00:33:40.072Z,0.00
2023-03-05T00:34:39.269Z,0.00
2023-03-05T00:35:39.488Z,0.00
2023-03-05T00:36:39.593Z,0.00
2023-03-05T00:37:39.849Z,0.00
2023-03-05T00:38:40.063Z,0.00
2023-03-05T00:39:40.281Z,0.00
2023-03-05T00:40:41.151Z,0.00
2023-03-05T00:41:41.556Z,0.00
2023-03-05T00:42:40.904Z,0.00
2023-03-05T00:43:42.048Z,0.00
2023-03-05T00:44:42.081Z,0.00
2023-03-05T00:45:42.076Z,0.00
2023-03-05T00:46:41.665Z,0.00
2023-03-05T00:47:42.101Z,0.00
2023-03-05T00:48:43.542Z,0.00
2023-03-05T00:49:42.076Z,0.00
2023-03-05T00:50:44.044Z,0.00
2023-03-05T00:51:42.343Z,0.00
2023-03-05T00:52:42.610Z,0.00
2023-03-05T00:53:42.679Z,0.00
2023-03-05T00:54:42.927Z,0.00
2023-03-05T00:55:44.567Z,0.00
2023-03-05T00:56:45.068Z,0.00
2023-03-05T00:57:44.658Z,0.00
2023-03-05T00:58:44.650Z,0.00
2023-03-05T00:59:44.705Z,0.00
2023-03-05T01:00:44.134Z,0.00
2023-03-05T01:01:44.344Z,0.00
2023-03-05T01:02:45.109Z,0.00
2023-03-05T01:03:45.080Z,0.00
2023-03-05T01:04:44.908Z,0.00
2023-03-05T01:05:46.031Z,0.00
2023-03-05T01:06:46.040Z,0.00
2023-03-05T01:07:45.427Z,0.00
2023-03-05T01:08:45.679Z,0.00
2023-03-05T01:09:45.890Z,0.00
2023-03-05T01:10:47.039Z,0.00
2023-03-05T01:11:46.314Z,0.00
2023-03-05T01:12:46.512Z,0.00
2023-03-05T01:13:46.721Z,0.00
2023-03-05T01:14:46.917Z,0.00
2023-03-05T01:15:48.065Z,0.00
2023-03-05T01:16:47.239Z,0.00
2023-03-05T01:17:47.433Z,0.00
2023-03-05T01:18:47.624Z,0.00
2023-03-05T01:19:48.571Z,0.00
2023-03-05T01:20:48.074Z,0.00
2023-03-05T01:21:49.021Z,0.00
2023-03-05T01:22:48.294Z,0.00
2023-03-05T01:23:48.449Z,0.00
2023-03-05T01:24:48.604Z,0.00
2023-03-05T01:25:48.785Z,0.00
2023-03-05T01:26:49.524Z,0.00
2023-03-05T01:27:49.188Z,0.00
2023-03-05T01:28:49.342Z,0.00
2023-03-05T01:29:49.544Z,0.00
2023-03-05T01:30:49.739Z,0.00
2023-03-05T01:31:49.981Z,0.00
2023-03-05T01:32:52.020Z,0.00
2023-03-05T01:33:50.268Z,0.00
2023-03-05T01:34:50.468Z,0.00
2023-03-05T01:35:51.110Z,0.00
2023-03-05T01:36:50.772Z,0.00
2023-03-05T01:37:50.965Z,0.00
2023-03-05T01:38:52.075Z,0.00
2023-03-05T01:39:51.322Z,0.00
2023-03-05T01:40:51.507Z,0.00
2023-03-05T01:41:52.525Z,0.00
2023-03-05T01:42:51.787Z,0.00
2023-03-05T01:43:52.561Z,0.00
2023-03-05T01:44:52.094Z,0.00
2023-03-05T01:45:52.287Z,0.00
2023-03-05T01:46:53.518Z,0.00
2023-03-05T01:47:52.647Z,0.00
2023-03-05T01:48:53.535Z,0.00
2023-03-05T01:49:53.082Z,0.00
2023-03-05T01:50:53.241Z,0.00
2023-03-05T01:51:53.438Z,0.00
2023-03-05T01:52:53.637Z,0.00
2023-03-05T01:53:53.811Z,0.00
2023-03-05T01:54:53.998Z,0.00
2023-03-05T01:55:56.187Z,0.00
2023-03-05T01:56:55.326Z,0.00
2023-03-05T01:57:54.460Z,0.00
2023-03-05T01:58:54.623Z,0.00
2023-03-05T01:59:55.571Z,0.00
2023-03-05T02:00:55.558Z,0.00
2023-03-05T02:01:56.091Z,0.00
2023-03-05T02:02:55.329Z,0.00
2023-03-05T02:03:55.539Z,0.00
2023-03-05T02:04:56.598Z,0.00
2023-03-05T02:05:55.848Z,0.00
2023-03-05T02:06:56.035Z,0.00
2023-03-05T02:07:56.583Z,0.00
2023-03-05T02:08:56.345Z,0.00
2023-03-05T02:09:58.885Z,0.00
2023-03-05T02:10:57.561Z,0.00
2023-03-05T02:11:56.922Z,0.00
2023-03-05T02:12:57.088Z,0.00
2023-03-05T02:13:57.271Z,0.00
2023-03-05T02:14:57.467Z,0.00
2023-03-05T02:15:58.563Z,0.00
2023-03-05T02:16:58.861Z,0.00
2023-03-05T02:17:58.569Z,0.00
2023-03-05T02:18:59.019Z,0.00
2023-03-05T02:19:59.026Z,0.00
2023-03-05T02:20:58.445Z,0.00
2023-03-05T02:21:58.671Z,0.00
2023-03-05T02:22:59.572Z,0.00
2023-03-05T02:23:59.086Z,0.00
2023-03-05T02:25:00.026Z,0.00
2023-03-05T02:25:59.412Z,0.00
2023-03-05T02:27:00.528Z,0.00
2023-03-05T02:28:00.571Z,0.00
2023-03-05T02:29:00.529Z,0.00
2023-03-05T02:30:00.228Z,0.00
2023-03-05T02:31:00.401Z,0.00
2023-03-05T02:32:00.702Z,0.00
2023-03-05T02:33:00.826Z,0.00
2023-03-05T02:34:01.031Z,0.00
2023-03-05T02:35:01.218Z,0.00
2023-03-05T02:36:01.406Z,0.00
2023-03-05T02:37:01.595Z,0.00
2023-03-05T02:38:02.571Z,0.00
2023-03-05T02:39:02.528Z,0.00
2023-03-05T02:40:02.192Z,0.00
2023-03-05T02:41:03.076Z,0.00
2023-03-05T02:42:02.599Z,0.00
2023-03-05T02:43:02.785Z,0.00
2023-03-05T02:44:02.978Z,0.00
2023-03-05T02:45:03.169Z,0.00
2023-03-05T02:46:03.390Z,0.00
2023-03-05T02:47:03.564Z,0.00
2023-03-05T02:48:05.539Z,0.00
2023-03-05T02:49:03.935Z,0.00
2023-03-05T02:50:04.091Z,0.00
2023-03-05T02:51:06.077Z,0.00
2023-03-05T02:52:05.078Z,0.00
2023-03-05T02:53:04.600Z,0.00
2023-03-05T02:54:04.793Z,0.00
2023-03-05T02:55:05.584Z,0.00
2023-03-05T02:56:06.036Z,0.00
2023-03-05T02:57:05.283Z,0.00
2023-03-05T02:58:05.442Z,0.00
2023-03-05T02:59:06.095Z,0.00
2023-03-05T03:00:06.619Z,0.00
2023-03-05T03:01:06.085Z,0.00
2023-03-05T03:02:06.586Z,0.00
2023-03-05T03:03:06.515Z,0.00
2023-03-05T03:04:06.665Z,0.00
2023-03-05T03:05:06.823Z,0.00
2023-03-05T03:06:06.975Z,0.00
2023-03-05T03:07:08.054Z,0.00
2023-03-05T03:08:08.106Z,0.00
2023-03-05T03:09:08.038Z,0.00
2023-03-05T03:10:07.702Z,0.00
2023-03-05T03:11:07.876Z,0.00
2023-03-05T03:12:08.584Z,0.00
2023-03-05T03:13:09.540Z,0.00
2023-03-05T03:14:09.040Z,0.00
2023-03-05T03:15:08.574Z,0.00
2023-03-05T03:16:09.596Z,0.00
2023-03-05T03:17:08.994Z,0.00
2023-03-05T03:18:10.541Z,0.00
2023-03-05T03:19:10.058Z,0.00
2023-03-05T03:20:09.503Z,0.00
2023-03-05T03:21:11.040Z,0.00
2023-03-05T03:22:11.544Z,0.00
2023-03-05T03:23:10.050Z,0.00
2023-03-05T03:24:10.247Z,0.00
2023-03-05T03:25:10.430Z,0.00
2023-03-05T03:26:11.135Z,0.00
2023-03-05T03:27:10.843Z,0.00
2023-03-05T03:28:11.016Z,0.00
2023-03-05T03:29:11.217Z,0.00
2023-03-05T03:30:11.422Z,0.00
2023-03-05T03:31:11.612Z,0.00
2023-03-05T03:32:11.838Z,0.00
2023-03-05T03:33:12.602Z,0.00
2023-03-05T03:34:12.139Z,0.00
2023-03-05T03:35:12.296Z,0.00
2023-03-05T03:36:13.050Z,0.00
2023-03-05T03:37:12.689Z,0.00
2023-03-05T03:38:12.890Z,0.00
2023-03-05T03:39:14.563Z,0.00
2023-03-05T03:40:14.049Z,0.00
2023-03-05T03:41:14.557Z,0.00
2023-03-05T03:42:13.460Z,0.00
2023-03-05T03:43:14.657Z,0.00
2023-03-05T03:44:13.858Z,0.00
2023-03-05T03:45:14.600Z,0.00
2023-03-05T03:46:14.285Z,0.00
2023-03-05T03:47:16.055Z,0.00
2023-03-05T03:48:15.598Z,0.00
2023-03-05T03:49:14.893Z,0.00
2023-03-05T03:50:15.110Z,0.00
2023-03-05T03:51:15.282Z,0.00
2023-03-05T03:52:15.443Z,0.00
2023-03-05T03:53:16.093Z,0.00
2023-03-05T03:54:15.744Z,0.00
2023-03-05T03:55:17.923Z,0.00
2023-03-05T03:56:17.563Z,0.00
2023-03-05T03:57:16.312Z,0.00
2023-03-05T03:58:16.481Z,0.00
2023-03-05T03:59:16.641Z,0.00
2023-03-05T04:00:18.065Z,0.00
2023-03-05T04:01:18.554Z,0.00
2023-03-05T04:02:18.218Z,0.00
2023-03-05T04:03:19.059Z,0.00
2023-03-05T04:04:18.152Z,0.00
2023-03-05T04:05:17.603Z,0.00
2023-03-05T04:06:17.777Z,0.00
2023-03-05T04:07:18.601Z,0.00
2023-03-05T04:08:18.616Z,0.00
2023-03-05T04:09:19.000Z,0.00
2023-03-05T04:10:18.408Z,0.00
2023-03-05T04:11:20.583Z,0.00
2023-03-05T04:12:19.428Z,0.00
2023-03-05T04:13:19.025Z,0.00
2023-03-05T04:14:19.210Z,0.00
2023-03-05T04:15:20.105Z,0.00
2023-03-05T04:16:20.135Z,0.00
2023-03-05T04:17:21.570Z,0.00
2023-03-05T04:18:20.116Z,0.00
2023-03-05T04:19:21.064Z,0.00
2023-03-05T04:20:20.259Z,0.00
2023-03-05T04:21:21.101Z,0.00
2023-03-05T04:22:21.614Z,0.00
2023-03-05T04:23:20.811Z,0.00
2023-03-05T04:24:22.068Z,0.00
2023-03-05T04:25:21.220Z,0.00
2023-03-05T04:26:21.416Z,0.00
2023-03-05T04:27:21.567Z,0.00
2023-03-05T04:28:21.757Z,0.00
2023-03-05T04:29:21.954Z,0.00
2023-03-05T04:30:22.128Z,0.00
2023-03-05T04:31:22.348Z,0.00
2023-03-05T04:32:22.472Z,0.00
2023-03-05T04:33:24.062Z,0.00
2023-03-05T04:34:22.729Z,0.00
2023-03-05T04:35:22.957Z,0.00
2023-03-05T04:36:23.081Z,0.00
2023-03-05T04:37:24.065Z,0.00
2023-03-05T04:38:23.468Z,0.00
2023-03-05T04:39:23.671Z,0.00
2023-03-05T04:40:24.628Z,0.00
2023-03-05T04:41:24.118Z,0.00
2023-03-05T04:42:25.110Z,0.00
2023-03-05T04:43:24.521Z,0.00
2023-03-05T04:44:25.594Z,0.00
2023-03-05T04:45:24.838Z,0.00
2023-03-05T04:46:25.669Z,0.00
2023-03-05T04:47:26.099Z,0.00
2023-03-05T04:48:25.613Z,0.00
2023-03-05T04:49:25.526Z,0.00
2023-03-05T04:50:26.558Z,0.00
2023-03-05T04:51:25.812Z,0.00
2023-03-05T04:52:25.946Z,0.00
2023-03-05T04:53:26.188Z,0.00
2023-03-05T04:54:26.338Z,0.00
2023-03-05T04:55:26.480Z,0.00
2023-03-05T04:56:27.600Z,0.00
2023-03-05T04:57:26.837Z,0.00
2023-03-05T04:58:27.610Z,0.00
2023-03-05T04:59:27.118Z,0.00
2023-03-05T05:00:28.058Z,0.00
2023-03-05T05:01:28.108Z,0.00
2023-03-05T05:02:27.675Z,0.00
2023-03-05T05:03:27.852Z,0.00
2023-03-05T05:04:28.146Z,0.00
2023-03-05T05:05:28.164Z,0.00
2023-03-05T05:06:28.319Z,0.00
2023-03-05T05:07:28.510Z,0.00
2023-03-05T05:08:28.641Z,0.00
2023-03-05T05:09:30.067Z,0.00
2023-03-05T05:10:29.560Z,0.00
2023-03-05T05:11:29.158Z,0.00
2023-03-05T05:12:30.061Z,0.00
2023-03-05T05:13:30.102Z,0.00
2023-03-05T05:14:29.575Z,0.00
2023-03-05T05:15:29.804Z,0.00
2023-03-05T05:16:30.254Z,0.00
2023-03-05T05:17:30.120Z,0.00
2023-03-05T05:18:30.248Z,0.00
2023-03-05T05:19:32.106Z,0.00
2023-03-05T05:20:31.604Z,0.00
2023-03-05T05:21:30.869Z,0.00
2023-03-05T05:22:31.039Z,0.00
2023-03-05T05:23:31.244Z,0.00
2023-03-05T05:24:31.421Z,0.00
2023-03-05T05:25:31.577Z,0.00
2023-03-05T05:26:31.745Z,0.00
2023-03-05T05:27:31.974Z,0.00
2023-03-05T05:28:33.112Z,0.00
2023-03-05T05:29:34.068Z,0.00
2023-03-05T05:30:33.111Z,0.00
2023-03-05T05:31:32.867Z,0.00
2023-03-05T05:32:32.972Z,0.00
2023-03-05T05:33:33.956Z,0.00
2023-03-05T05:34:33.222Z,0.00
2023-03-05T05:35:33.474Z,0.00
2023-03-05T05:36:33.557Z,0.00
2023-03-05T05:37:34.133Z,0.00
2023-03-05T05:38:33.907Z,0.00
2023-03-05T05:39:34.046Z,0.00
2023-03-05T05:40:34.184Z,0.00
2023-03-05T05:41:35.110Z,0.00
2023-03-05T05:42:35.072Z,0.00
2023-03-05T05:43:34.735Z,0.00
2023-03-05T05:44:36.584Z,4.00
2023-03-05T05:45:35.166Z,4.00
2023-03-05T05:46:35.356Z,4.00
2023-03-05T05:47:35.547Z,0.00
2023-03-05T05:48:35.714Z,0.00
2023-03-05T05:49:36.579Z,4.00
2023-03-05T05:50:36.621Z,4.00
2023-03-05T05:51:36.258Z,0.00
2023-03-05T05:52:36.391Z,4.00
2023-03-05T05:53:37.081Z,4.00
2023-03-05T05:54:37.589Z,8.00
2023-03-05T05:55:36.966Z,4.00
2023-03-05T05:56:37.628Z,8.00
2023-03-05T05:57:38.086Z,8.00
2023-03-05T05:58:38.582Z,4.00
2023-03-05T05:59:37.707Z,12.00
2023-03-05T06:00:37.891Z,16.00
2023-03-05T06:01:38.065Z,16.00
2023-03-05T06:02:38.312Z,16.00
2023-03-05T06:03:38.495Z,24.00
2023-03-05T06:04:39.588Z,24.00
2023-03-05T06:05:38.900Z,24.00
2023-03-05T06:06:41.984Z,28.00
2023-03-05T06:07:40.043Z,32.00
2023-03-05T06:08:39.442Z,32.00
2023-03-05T06:09:39.608Z,40.00
2023-03-05T06:10:39.787Z,40.00
2023-03-05T06:11:39.983Z,44.00
2023-03-05T06:12:42.102Z,52.00
2023-03-05T06:13:40.346Z,52.00
2023-03-05T06:14:40.563Z,60.00
2023-03-05T06:15:41.619Z,72.00
2023-03-05T06:16:40.955Z,76.00
2023-03-05T06:17:41.131Z,84.00
2023-03-05T06:18:41.183Z,92.00
2023-03-05T06:19:41.375Z,108.00
2023-03-05T06:20:42.083Z,112.00
2023-03-05T06:21:42.652Z,124.00
2023-03-05T06:22:41.977Z,140.00
2023-03-05T06:23:43.087Z,152.00
2023-03-05T06:24:42.413Z,168.00
2023-03-05T06:25:42.517Z,180.00
2023-03-05T06:26:42.746Z,196.00
2023-03-05T06:27:44.447Z,216.00
2023-03-05T06:28:43.110Z,232.00
2023-03-05T06:29:44.123Z,252.00
2023-03-05T06:30:44.629Z,272.00
2023-03-05T06:31:43.712Z,296.00
2023-03-05T06:32:44.620Z,320.00
2023-03-05T06:33:44.077Z,340.00
2023-03-05T06:34:44.172Z,360.00
2023-03-05T06:35:44.428Z,344.00
2023-03-05T06:36:47.084Z,380.00
2023-03-05T06:37:44.717Z,404.00
2023-03-05T06:38:46.219Z,396.00
2023-03-05T06:39:45.152Z,416.00
2023-03-05T06:40:45.424Z,396.00
2023-03-05T06:41:45.475Z,336.00
2023-03-05T06:42:45.656Z,280.00
2023-03-05T06:43:45.819Z,256.00
2023-03-05T06:44:47.963Z,256.00
2023-03-05T06:45:47.248Z,260.00
2023-03-05T06:46:46.410Z,252.00
2023-03-05T06:47:47.603Z,228.00
2023-03-05T06:48:48.103Z,224.00
2023-03-05T06:49:47.032Z,248.00
2023-03-05T06:50:48.089Z,280.00
2023-03-05T06:51:47.377Z,276.00
2023-03-05T06:52:47.555Z,276.00
2023-03-05T06:53:49.786Z,292.00
2023-03-05T06:54:47.961Z,364.00
2023-03-05T06:55:48.150Z,436.00
2023-03-05T06:56:49.095Z,440.00
2023-03-05T06:57:48.488Z,440.00
2023-03-05T06:58:48.684Z,460.00
2023-03-05T06:59:48.855Z,532.00
2023-03-05T07:00:49.590Z,608.00
2023-03-05T07:01:49.253Z,600.00
2023-03-05T07:02:49.456Z,676.00
2023-03-05T07:03:49.624Z,796.00
2023-03-05T07:04:49.777Z,748.00
2023-03-05T07:05:49.941Z,624.00
2023-03-05T07:06:50.124Z,604.00
2023-03-05T07:07:50.287Z,712.00
2023-03-05T07:08:50.433Z,844.00
2023-03-05T07:09:50.568Z,892.00
2023-03-05T07:10:52.452Z,936.00
2023-03-05T07:11:52.091Z,952.00
2023-03-05T07:12:51.116Z,844.00
2023-03-05T07:13:51.295Z,780.00
2023-03-05T07:14:51.458Z,672.00
2023-03-05T07:15:51.671Z,628.00
2023-03-05T07:16:51.759Z,632.00
2023-03-05T07:17:51.942Z,648.00
2023-03-05T07:18:52.639Z,612.00
2023-03-05T07:19:53.133Z,576.00
2023-03-05T07:20:53.135Z,536.00
2023-03-05T07:21:52.675Z,508.00
2023-03-05T07:22:52.883Z,444.00
2023-03-05T07:23:53.083Z,436.00
2023-03-05T07:24:54.133Z,448.00
2023-03-05T07:25:53.406Z,436.00
2023-03-05T07:26:54.140Z,396.00
2023-03-05T07:27:53.776Z,388.00
2023-03-05T07:28:54.142Z,400.00
2023-03-05T07:29:54.146Z,392.00
2023-03-05T07:30:54.246Z,360.00
2023-03-05T07:31:54.429Z,364.00
2023-03-05T07:32:54.608Z,412.00
2023-03-05T07:33:54.819Z,452.00
2023-03-05T07:34:55.012Z,484.00
2023-03-05T07:35:55.268Z,512.00
2023-03-05T07:36:56.142Z,500.00
2023-03-05T07:37:55.538Z,584.00
2023-03-05T07:38:55.701Z,756.00
2023-03-05T07:39:55.917Z,876.00
2023-03-05T07:40:56.599Z,948.00
2023-03-05T07:41:56.263Z,856.00
2023-03-05T07:42:57.141Z,772.00
2023-03-05T07:43:56.686Z,684.00
2023-03-05T07:44:57.601Z,580.00
2023-03-05T07:45:57.610Z,488.00
2023-03-05T07:46:57.149Z,432.00
2023-03-05T07:47:58.142Z,424.00
2023-03-05T07:48:57.550Z,484.00
2023-03-05T07:49:57.715Z,600.00
2023-03-05T07:50:59.603Z,700.00
2023-03-05T07:51:58.639Z,692.00
2023-03-05T07:52:59.096Z,736.00
2023-03-05T07:53:59.148Z,696.00
2023-03-05T07:54:58.712Z,704.00
2023-03-05T07:55:58.919Z,780.00
2023-03-05T07:57:00.105Z,960.00
2023-03-05T07:57:59.283Z,1048.00
2023-03-05T07:58:59.495Z,928.00
2023-03-05T07:59:59.686Z,800.00
2023-03-05T08:01:00.643Z,708.00
2023-03-05T08:02:00.054Z,732.00
2023-03-05T08:03:02.141Z,900.00
2023-03-05T08:04:00.417Z,1064.00
2023-03-05T08:05:01.597Z,1264.00
2023-03-05T08:06:00.745Z,1300.00
2023-03-05T08:07:00.911Z,1184.00
2023-03-05T08:08:01.133Z,1048.00
2023-03-05T08:09:01.289Z,1024.00
2023-03-05T08:10:02.158Z,948.00
2023-03-05T08:11:03.346Z,884.00
2023-03-05T08:12:02.905Z,824.00
2023-03-05T08:13:02.611Z,792.00
2023-03-05T08:14:03.174Z,732.00
2023-03-05T08:15:02.302Z,772.00
2023-03-05T08:16:03.206Z,888.00
2023-03-05T08:17:02.677Z,1016.00
2023-03-05T08:18:02.843Z,1136.00
2023-03-05T08:19:03.648Z,1404.00
2023-03-05T08:20:03.172Z,1480.00
2023-03-05T08:21:04.109Z,1392.00
2023-03-05T08:22:03.512Z,1364.00
2023-03-05T08:23:03.681Z,1240.00
2023-03-05T08:24:03.849Z,1192.00
2023-03-05T08:25:04.017Z,1348.00
2023-03-05T08:26:05.153Z,1336.00
2023-03-05T08:27:04.481Z,1436.00
2023-03-05T08:28:04.627Z,1988.00
2023-03-05T08:29:05.605Z,1536.00
2023-03-05T08:30:04.986Z,1248.00
2023-03-05T08:31:06.618Z,1052.00
2023-03-05T08:32:05.479Z,984.00
2023-03-05T08:33:06.967Z,872.00
2023-03-05T08:34:05.719Z,1024.00
2023-03-05T08:35:06.619Z,1240.00
2023-03-05T08:36:06.125Z,1264.00
2023-03-05T08:37:08.615Z,1056.00
2023-03-05T08:38:07.180Z,1068.00
2023-03-05T08:39:06.692Z,1488.00
2023-03-05T08:40:06.937Z,1656.00
2023-03-05T08:41:07.106Z,1592.00
2023-03-05T08:42:09.018Z,1424.00
2023-03-05T08:43:08.471Z,1212.00
2023-03-05T08:44:07.670Z,1216.00
2023-03-05T08:45:08.601Z,1180.00
2023-03-05T08:46:08.644Z,1172.00
2023-03-05T08:47:08.190Z,1104.00
2023-03-05T08:48:10.015Z,1280.00
2023-03-05T08:49:08.491Z,1464.00
2023-03-05T08:50:08.661Z,1616.00
2023-03-05T08:51:08.805Z,1708.00
2023-03-05T08:52:08.957Z,1748.00
2023-03-05T08:53:09.653Z,1700.00
2023-03-05T08:54:09.308Z,1896.00
2023-03-05T08:55:09.465Z,1860.00
2023-03-05T08:56:09.630Z,2052.00
2023-03-05T08:57:10.685Z,2280.00
2023-03-05T08:58:10.617Z,2468.00
2023-03-05T08:59:11.980Z,2096.00
2023-03-05T09:00:11.107Z,1764.00
2023-03-05T09:01:10.509Z,1684.00
2023-03-05T09:02:11.653Z,1516.00
2023-03-05T09:03:10.798Z,1312.00
2023-03-05T09:04:10.968Z,1308.00
2023-03-05T09:05:11.611Z,1348.00
2023-03-05T09:06:11.338Z,1492.00
2023-03-05T09:07:12.485Z,1612.00
2023-03-05T09:08:12.656Z,1828.00
2023-03-05T09:09:11.912Z,2020.00
2023-03-05T09:10:13.632Z,2844.00
2023-03-05T09:11:12.272Z,2752.00
2023-03-05T09:12:12.416Z,2684.00
2023-03-05T09:13:13.117Z,2520.00
2023-03-05T09:14:12.777Z,1968.00
2023-03-05T09:15:12.943Z,2124.00
2023-03-05T09:16:13.136Z,2124.00
2023-03-05T09:17:14.110Z,2248.00
2023-03-05T09:18:13.504Z,2512.00
2023-03-05T09:19:13.683Z,2636.00
2023-03-05T09:20:13.861Z,3044.00
2023-03-05T09:21:14.029Z,3384.00
2023-03-05T09:22:14.207Z,3608.00
2023-03-05T09:23:14.436Z,3628.00
2023-03-05T09:24:15.156Z,4000.00
2023-03-05T09:25:14.692Z,4016.00
2023-03-05T09:26:16.614Z,3708.00
2023-03-05T09:27:14.987Z,3108.00
2023-03-05T09:28:16.615Z,2928.00
2023-03-05T09:29:15.392Z,3140.00
2023-03-05T09:30:15.605Z,2876.00
2023-03-05T09:31:15.834Z,2428.00
2023-03-05T09:32:16.684Z,2124.00
2023-03-05T09:33:16.237Z,2012.00
2023-03-05T09:34:16.388Z,1940.00
2023-03-05T09:35:17.616Z,1924.00
2023-03-05T09:36:16.750Z,2072.00
2023-03-05T09:37:16.904Z,2376.00
2023-03-05T09:38:17.073Z,2676.00
2023-03-05T09:39:18.114Z,3392.00
2023-03-05T09:40:17.380Z,3360.00
2023-03-05T09:41:19.480Z,3656.00
2023-03-05T09:42:17.756Z,3808.00
2023-03-05T09:43:17.928Z,3200.00
2023-03-05T09:44:19.480Z,3076.00
2023-03-05T09:45:19.132Z,2744.00
2023-03-05T09:46:18.380Z,3084.00
2023-03-05T09:47:18.582Z,3196.00
2023-03-05T09:48:19.710Z,3572.00
2023-03-05T09:49:18.832Z,3952.00
2023-03-05T09:50:18.978Z,4320.00
2023-03-05T09:51:20.622Z,3972.00
2023-03-05T09:52:19.674Z,3824.00
2023-03-05T09:53:19.558Z,3796.00
2023-03-05T09:54:19.696Z,3468.00
2023-03-05T09:55:19.882Z,3084.00
2023-03-05T09:56:20.074Z,2332.00
2023-03-05T09:57:21.125Z,1928.00
2023-03-05T09:58:21.490Z,1804.00
2023-03-05T09:59:20.631Z,1784.00
2023-03-05T10:00:20.845Z,1612.00
2023-03-05T10:01:21.040Z,1300.00
2023-03-05T10:02:22.130Z,1228.00
2023-03-05T10:03:22.162Z,1132.00
2023-03-05T10:04:22.199Z,1236.00
2023-03-05T10:05:22.683Z,1832.00
2023-03-05T10:06:25.570Z,2616.00
2023-03-05T10:07:22.172Z,2976.00
2023-03-05T10:08:22.398Z,2924.00
2023-03-05T10:09:22.572Z,2864.00
2023-03-05T10:10:22.753Z,2496.00
2023-03-05T10:11:22.944Z,2208.00
2023-03-05T10:12:23.116Z,2372.00
2023-03-05T10:13:23.306Z,3052.00
2023-03-05T10:14:23.474Z,2872.00
2023-03-05T10:15:23.654Z,2668.00
2023-03-05T10:16:24.729Z,2600.00
2023-03-05T10:17:24.045Z,3048.00
2023-03-05T10:18:24.211Z,2596.00
2023-03-05T10:19:24.368Z,2052.00
2023-03-05T10:20:24.542Z,2132.00
2023-03-05T10:21:25.643Z,2396.00
2023-03-05T10:22:25.678Z,2948.00
2023-03-05T10:23:25.090Z,3412.00
2023-03-05T10:24:26.135Z,3624.00
2023-03-05T10:25:25.992Z,3576.00
2023-03-05T10:26:27.641Z,3432.00
2023-03-05T10:27:27.661Z,3424.00
2023-03-05T10:28:26.034Z,3468.00
2023-03-05T10:29:27.135Z,3072.00
2023-03-05T10:30:26.433Z,3040.00
2023-03-05T10:31:26.631Z,4076.00
2023-03-05T10:32:26.892Z,4204.00
2023-03-05T10:33:26.956Z,3612.00
2023-03-05T10:34:27.136Z,3164.00
2023-03-05T10:35:27.422Z,2740.00
2023-03-05T10:36:29.137Z,2900.00
2023-03-05T10:37:27.650Z,3196.00
2023-03-05T10:38:28.628Z,2940.00
2023-03-05T10:39:28.022Z,2340.00
2023-03-05T10:40:28.214Z,1792.00
2023-03-05T10:41:29.133Z,1552.00
2023-03-05T10:42:31.044Z,1472.00
2023-03-05T10:43:30.673Z,1364.00
2023-03-05T10:44:28.912Z,1512.00
2023-03-05T10:45:29.081Z,1536.00
2023-03-05T10:46:29.273Z,1536.00
2023-03-05T10:47:29.454Z,2160.00
2023-03-05T10:48:30.627Z,2508.00
2023-03-05T10:49:30.631Z,1968.00
2023-03-05T10:50:30.676Z,1776.00
2023-03-05T10:51:30.105Z,1780.00
2023-03-05T10:52:30.261Z,1860.00
2023-03-05T10:53:31.132Z,1472.00
2023-03-05T10:54:30.631Z,1268.00
2023-03-05T10:55:30.774Z,976.00
2023-03-05T10:56:30.971Z,868.00
2023-03-05T10:57:31.684Z,1004.00
2023-03-05T10:58:31.370Z,1248.00
2023-03-05T10:59:31.569Z,1500.00
2023-03-05T11:00:31.740Z,1548.00
2023-03-05T11:01:31.984Z,1568.00
2023-03-05T11:02:32.262Z,1588.00
2023-03-05T11:03:32.167Z,1596.00
2023-03-05T11:04:33.635Z,1468.00
2023-03-05T11:05:33.176Z,1528.00
2023-03-05T11:06:32.716Z,1660.00
2023-03-05T11:07:32.914Z,1660.00
2023-03-05T11:08:33.648Z,1592.00
2023-03-05T11:09:33.579Z,1568.00
2023-03-05T11:10:33.527Z,1704.00
2023-03-05T11:11:35.636Z,1776.00
2023-03-05T11:12:33.905Z,1828.00
2023-03-05T11:13:34.102Z,1956.00
2023-03-05T11:14:35.173Z,2096.00
2023-03-05T11:15:34.480Z,2160.00
2023-03-05T11:16:35.638Z,2184.00
2023-03-05T11:17:34.789Z,2340.00
2023-03-05T11:18:34.955Z,2484.00
2023-03-05T11:19:36.124Z,2388.00
2023-03-05T11:20:35.276Z,2532.00
2023-03-05T11:21:36.138Z,2768.00
2023-03-05T11:22:35.660Z,2932.00
2023-03-05T11:23:35.823Z,2940.00
2023-03-05T11:24:35.998Z,2656.00
2023-03-05T11:25:36.683Z,2464.00
2023-03-05T11:26:36.377Z,2400.00
2023-03-05T11:27:37.128Z,2644.00
2023-03-05T11:28:36.787Z,2784.00
2023-03-05T11:29:37.626Z,2932.00
2023-03-05T11:30:37.218Z,2620.00
2023-03-05T11:31:37.320Z,2252.00
2023-03-05T11:32:37.534Z,2060.00
2023-03-05T11:33:38.175Z,1836.00
2023-03-05T11:34:37.867Z,1536.00
2023-03-05T11:35:38.150Z,1456.00
2023-03-05T11:36:38.166Z,1360.00
2023-03-05T11:37:38.385Z,1268.00
2023-03-05T11:38:38.550Z,1100.00
2023-03-05T11:39:40.151Z,976.00
2023-03-05T11:40:38.921Z,916.00
2023-03-05T11:41:41.154Z,868.00
2023-03-05T11:42:39.293Z,788.00
2023-03-05T11:43:41.179Z,732.00
2023-03-05T11:44:40.177Z,744.00
2023-03-05T11:45:39.848Z,804.00
2023-03-05T11:46:40.085Z,788.00
2023-03-05T11:47:40.182Z,736.00
2023-03-05T11:48:41.139Z,820.00
2023-03-05T11:49:40.533Z,824.00
2023-03-05T11:50:40.704Z,668.00
2023-03-05T11:51:40.869Z,772.00
2023-03-05T11:52:41.057Z,980.00
2023-03-05T11:53:41.216Z,1120.00
2023-03-05T11:54:42.135Z,1076.00
2023-03-05T11:55:41.547Z,1116.00
2023-03-05T11:56:41.723Z,1492.00
2023-03-05T11:57:41.919Z,1704.00
2023-03-05T11:58:42.694Z,2320.00
2023-03-05T11:59:42.366Z,3104.00
2023-03-05T12:00:42.555Z,3588.00
2023-03-05T12:01:42.750Z,3940.00
2023-03-05T12:02:43.080Z,4104.00
2023-03-05T12:03:43.104Z,3984.00
2023-03-05T12:04:43.305Z,3828.00
2023-03-05T12:05:43.412Z,3648.00
2023-03-05T12:06:43.602Z,3464.00
2023-03-05T12:07:43.771Z,3252.00
2023-03-05T12:08:45.093Z,2976.00
2023-03-05T12:09:44.689Z,2740.00
2023-03-05T12:10:44.440Z,2552.00
2023-03-05T12:11:45.659Z,2432.00
2023-03-05T12:12:44.687Z,2384.00
2023-03-05T12:13:45.512Z,2368.00
2023-03-05T12:14:44.905Z,2352.00
2023-03-05T12:15:45.221Z,2284.00
2023-03-05T12:16:46.416Z,2084.00
2023-03-05T12:17:45.429Z,2104.00
2023-03-05T12:18:46.157Z,2140.00
2023-03-05T12:19:45.812Z,2204.00
2023-03-05T12:20:46.549Z,2216.00
2023-03-05T12:21:46.143Z,2160.00
2023-03-05T12:22:48.025Z,2068.00
2023-03-05T12:23:48.658Z,1984.00
2023-03-05T12:24:47.467Z,1892.00
2023-03-05T12:25:46.906Z,1792.00
2023-03-05T12:26:47.208Z,1636.00
2023-03-05T12:27:47.242Z,1436.00
2023-03-05T12:28:47.420Z,1336.00
2023-03-05T12:29:47.616Z,1404.00
2023-03-05T12:30:48.692Z,1564.00
2023-03-05T12:31:48.566Z,1644.00
2023-03-05T12:32:48.109Z,1668.00
2023-03-05T12:33:49.197Z,1704.00
2023-03-05T12:34:48.520Z,1732.00
2023-03-05T12:35:49.590Z,1836.00
2023-03-05T12:36:49.848Z,2076.00
2023-03-05T12:37:48.998Z,2216.00
2023-03-05T12:38:50.196Z,2344.00
2023-03-05T12:39:49.374Z,2404.00
2023-03-05T12:40:49.543Z,2352.00
2023-03-05T12:41:49.744Z,2308.00
2023-03-05T12:42:49.963Z,2276.00
2023-03-05T12:43:50.058Z,2272.00
2023-03-05T12:44:50.225Z,2328.00
2023-03-05T12:45:51.165Z,2476.00